createdAt,value
2022-08-17T00:03:28.801Z,79.99
2022-08-17T00:08:28.784Z,79.99
2022-08-17T00:13:28.715Z,79.69
2022-08-17T00:19:01.157Z,80.43
2022-08-17T00:23:29.606Z,80.63
2022-08-17T00:28:28.556Z,80.54
2022-08-17T00:33:28.774Z,80.43
2022-08-17T00:38:28.453Z,80.74
2022-08-17T00:43:28.373Z,80.63
2022-08-17T00:48:29.839Z,80.43
2022-08-17T00:53:28.286Z,80.33
2022-08-17T00:58:35.428Z,80.33
2022-08-17T01:03:29.177Z,80.47
2022-08-17T01:08:28.116Z,80.47
2022-08-17T01:13:28.054Z,80.68
2022-08-17T01:18:28.020Z,81.21
2022-08-17T01:23:27.944Z,81.12
2022-08-17T01:28:52.785Z,81.41
2022-08-17T01:33:28.848Z,81.32
2022-08-17T01:38:27.776Z,81.65
2022-08-17T01:43:27.785Z,81.65
2022-08-17T01:48:27.741Z,82.06
2022-08-17T01:53:27.635Z,82.60
2022-08-17T01:58:27.579Z,82.90
2022-08-17T02:03:34.589Z,83.00
2022-08-17T02:08:38.690Z,82.84
2022-08-17T02:13:28.427Z,83.04
2022-08-17T02:18:27.349Z,83.14
2022-08-17T02:23:27.286Z,83.25
2022-08-17T02:28:27.249Z,83.39
2022-08-17T02:33:42.154Z,83.99
2022-08-17T02:38:28.139Z,83.79
2022-08-17T02:43:27.088Z,84.09
2022-08-17T02:48:28.168Z,84.19
2022-08-17T02:53:26.979Z,84.43
2022-08-17T02:58:29.589Z,84.33
2022-08-17T03:03:27.861Z,84.63
2022-08-17T03:08:26.970Z,84.88
2022-08-17T03:13:26.751Z,85.48
2022-08-17T03:18:26.860Z,85.48
2022-08-17T03:23:27.276Z,86.13
2022-08-17T03:28:26.620Z,86.33
2022-08-17T03:33:26.555Z,86.73
2022-08-17T03:38:26.497Z,86.93
2022-08-17T03:43:26.430Z,86.83
2022-08-17T03:48:26.370Z,86.83
2022-08-17T03:53:27.468Z,86.93
2022-08-17T03:58:26.258Z,86.87
2022-08-17T04:03:26.213Z,87.07
2022-08-17T04:08:26.161Z,86.97
2022-08-17T04:13:26.089Z,86.97
2022-08-17T04:18:26.042Z,87.07
2022-08-17T04:23:25.977Z,87.18
2022-08-17T04:28:25.940Z,86.97
2022-08-17T04:33:25.890Z,86.87
2022-08-17T04:38:25.818Z,86.97
2022-08-17T04:43:25.760Z,86.97
2022-08-17T04:48:35.517Z,86.83
2022-08-17T04:53:26.728Z,86.53
2022-08-17T04:58:25.632Z,85.17
2022-08-17T05:03:25.551Z,84.23
2022-08-17T05:08:25.542Z,83.79
2022-08-17T05:13:25.458Z,81.63
2022-08-17T05:18:25.466Z,79.14
2022-08-17T05:23:25.361Z,80.31
2022-08-17T05:28:27.544Z,80.31
2022-08-17T05:33:25.331Z,79.97
2022-08-17T05:38:25.171Z,80.27
2022-08-17T05:43:25.119Z,79.73
2022-08-17T05:48:39.510Z,79.09
2022-08-17T05:53:26.140Z,78.75
2022-08-17T05:58:24.941Z,78.22
2022-08-17T06:03:24.971Z,77.54
2022-08-17T06:08:24.921Z,76.80
2022-08-17T06:13:24.863Z,75.13
2022-08-17T06:18:24.765Z,74.29
2022-08-17T06:23:24.786Z,72.19
2022-08-17T06:28:24.707Z,67.56
2022-08-17T06:33:24.609Z,72.32
2022-08-17T06:38:37.166Z,72.72
2022-08-17T06:43:25.490Z,72.39
2022-08-17T06:48:24.461Z,71.39
2022-08-17T06:53:24.380Z,69.66
2022-08-17T06:58:24.313Z,69.92
2022-08-17T07:03:25.281Z,66.80
2022-08-17T07:08:29.136Z,67.27
2022-08-17T07:13:25.283Z,67.13
2022-08-17T07:18:24.202Z,64.01
2022-08-17T07:23:24.045Z,64.12
2022-08-17T07:28:24.007Z,61.80
2022-08-17T07:33:23.956Z,60.57
2022-08-17T07:38:24.637Z,60.94
2022-08-17T07:43:23.902Z,60.91
2022-08-17T07:48:23.812Z,60.16
2022-08-17T07:53:23.735Z,59.44
2022-08-17T07:58:23.755Z,59.23
2022-08-17T08:03:25.982Z,59.14
2022-08-17T13:57:43.381Z,57.59
2022-08-17T14:02:43.414Z,57.93
2022-08-17T14:10:55.040Z,57.91
2022-08-17T14:15:56.699Z,58.14
2022-08-17T14:20:54.907Z,58.01
2022-08-17T14:25:54.862Z,58.43
2022-08-17T14:30:54.830Z,58.65
2022-08-17T14:35:54.804Z,58.73
2022-08-17T14:40:54.726Z,56.75
2022-08-17T14:45:54.735Z,59.28
2022-08-17T14:50:54.627Z,58.81
2022-08-17T14:55:54.613Z,58.98
2022-08-17T15:00:54.684Z,58.16
2022-08-17T15:05:54.519Z,58.59
2022-08-17T15:10:54.622Z,58.36
2022-08-17T15:15:54.489Z,59.08
2022-08-17T15:20:54.360Z,60.46
2022-08-17T15:25:54.438Z,61.51
2022-08-17T15:30:54.212Z,62.20
2022-08-17T15:35:54.176Z,62.93
2022-08-17T15:40:54.198Z,63.35
2022-08-17T15:45:59.716Z,63.98
2022-08-17T15:50:55.060Z,64.37
2022-08-17T15:55:54.955Z,64.17
2022-08-17T16:01:18.268Z,64.47
2022-08-17T16:05:54.878Z,64.77
2022-08-17T16:10:53.761Z,65.66
2022-08-17T16:15:57.019Z,64.24
2022-08-17T16:20:53.644Z,64.04
2022-08-17T16:25:54.534Z,64.50
2022-08-17T16:30:54.617Z,63.98
2022-08-17T16:35:53.473Z,64.17
2022-08-17T16:40:53.578Z,62.82
2022-08-17T16:45:53.379Z,62.96
2022-08-17T16:51:02.922Z,62.26
2022-08-17T16:55:54.429Z,62.88
2022-08-17T17:00:53.364Z,63.61
2022-08-17T17:05:57.828Z,64.53
2022-08-17T17:10:54.245Z,65.49
2022-08-17T17:15:53.034Z,66.22
2022-08-17T17:20:53.033Z,66.94
2022-08-17T17:25:56.445Z,67.14
2022-08-17T17:30:52.862Z,68.07
2022-08-17T17:35:52.917Z,67.67
2022-08-17T17:40:52.875Z,68.99
2022-08-17T17:45:52.728Z,69.53
2022-08-17T17:50:53.750Z,70.75
2022-08-17T17:55:52.817Z,70.75
2022-08-17T18:00:52.733Z,70.56
2022-08-17T18:05:52.571Z,70.98
2022-08-17T18:10:52.597Z,71.48
2022-08-17T18:15:52.651Z,72.31
2022-08-17T18:20:55.957Z,73.05
2022-08-17T18:25:52.291Z,73.48
2022-08-17T18:30:52.365Z,74.38
2022-08-17T18:35:58.811Z,74.71
2022-08-17T18:40:53.274Z,75.65
2022-08-17T18:45:52.071Z,76.38
2022-08-17T18:50:53.519Z,76.88
2022-08-17T18:55:52.056Z,77.92
2022-08-17T19:00:51.906Z,78.05
2022-08-17T19:05:51.864Z,78.96
2022-08-17T19:10:51.798Z,79.69
2022-08-17T19:16:13.718Z,80.09
2022-08-17T19:20:52.697Z,81.89
2022-08-17T19:25:52.557Z,86.89
2022-08-17T19:30:51.573Z,86.47
2022-08-17T19:35:51.590Z,86.27
2022-08-17T19:40:53.732Z,87.71
2022-08-17T19:45:51.456Z,88.06
2022-08-17T19:50:51.373Z,86.35
2022-08-17T19:55:51.395Z,85.80
2022-08-17T20:00:51.242Z,85.60
2022-08-17T20:06:11.452Z,86.74
2022-08-17T20:10:54.494Z,87.14
2022-08-17T20:15:51.046Z,86.78
2022-08-17T20:20:51.020Z,86.48
2022-08-17T20:25:50.937Z,87.78
2022-08-17T20:30:50.898Z,87.88
2022-08-17T20:35:50.861Z,87.73
2022-08-17T20:40:51.924Z,88.63
2022-08-17T20:45:50.950Z,90.33
2022-08-17T20:50:50.768Z,88.73
2022-08-17T20:55:51.644Z,90.33
2022-08-17T21:00:50.668Z,88.27
2022-08-17T21:05:50.565Z,87.87
2022-08-17T21:10:51.541Z,87.91
2022-08-17T21:15:50.423Z,88.35
2022-08-17T21:20:50.355Z,89.15
2022-08-17T21:25:50.461Z,89.36
2022-08-17T21:30:50.414Z,89.60
2022-08-17T21:35:50.369Z,90.11
2022-08-17T21:40:50.272Z,90.11
2022-08-17T21:45:50.237Z,90.45
2022-08-17T21:50:50.156Z,90.95
2022-08-17T21:55:49.996Z,91.35
2022-08-17T22:00:50.006Z,91.09
2022-08-17T22:05:49.875Z,91.39
2022-08-17T22:10:49.831Z,91.90
2022-08-17T22:15:49.772Z,91.85
2022-08-17T22:20:49.717Z,91.94
2022-08-17T22:25:49.743Z,92.05
2022-08-17T22:30:49.584Z,92.49
2022-08-17T22:35:49.548Z,92.39
2022-08-17T22:40:51.592Z,92.79
2022-08-17T22:45:49.418Z,92.69
2022-08-17T22:50:49.537Z,92.74
2022-08-17T22:55:49.334Z,93.14
2022-08-17T23:00:49.286Z,93.04
2022-08-17T23:05:49.356Z,93.04
2022-08-17T23:10:49.296Z,93.08
2022-08-17T23:15:49.085Z,93.18
2022-08-17T23:20:49.026Z,93.49
2022-08-17T23:25:48.997Z,93.38
2022-08-17T23:30:48.928Z,93.69
2022-08-17T23:35:48.846Z,93.63
2022-08-17T23:40:48.809Z,93.84
2022-08-17T23:45:48.777Z,93.93
2022-08-17T23:50:48.710Z,94.18
2022-08-17T23:55:48.646Z,95.65
